sensor_id;sensor_type;location;lat;lon;timestamp;temperature;humidity
39655;DHT22;25336;59.944;11.010;2022-10-31T00:01:18;9.20;78.20
39655;DHT22;25336;59.944;11.010;2022-10-31T00:03:44;9.20;78.20
39655;DHT22;25336;59.944;11.010;2022-10-31T00:06:10;9.20;78.10
39655;DHT22;25336;59.944;11.010;2022-10-31T00:08:36;9.60;78.30
39655;DHT22;25336;59.944;11.010;2022-10-31T00:11:02;10.00;78.60
39655;DHT22;25336;59.944;11.010;2022-10-31T00:13:27;9.20;78.10
39655;DHT22;25336;59.944;11.010;2022-10-31T00:15:53;9.40;78.30
39655;DHT22;25336;59.944;11.010;2022-10-31T00:18:19;9.20;78.10
39655;DHT22;25336;59.944;11.010;2022-10-31T00:20:44;10.50;79.00
39655;DHT22;25336;59.944;11.010;2022-10-31T00:23:10;9.20;78.10
39655;DHT22;25336;59.944;11.010;2022-10-31T00:25:38;9.20;78.10
39655;DHT22;25336;59.944;11.010;2022-10-31T00:28:05;9.90;78.50
39655;DHT22;25336;59.944;11.010;2022-10-31T00:30:32;9.20;78.10
39655;DHT22;25336;59.944;11.010;2022-10-31T00:32:58;10.80;79.10
39655;DHT22;25336;59.944;11.010;2022-10-31T00:35:23;9.20;78.10
39655;DHT22;25336;59.944;11.010;2022-10-31T00:37:49;9.20;78.10
39655;DHT22;25336;59.944;11.010;2022-10-31T00:40:15;9.10;78.00
39655;DHT22;25336;59.944;11.010;2022-10-31T00:42:41;9.10;78.10
39655;DHT22;25336;59.944;11.010;2022-10-31T00:45:08;9.10;78.10
39655;DHT22;25336;59.944;11.010;2022-10-31T00:47:34;8.80;78.00
39655;DHT22;25336;59.944;11.010;2022-10-31T00:50:00;9.20;78.10
39655;DHT22;25336;59.944;11.010;2022-10-31T00:52:25;9.10;78.00
39655;DHT22;25336;59.944;11.010;2022-10-31T00:54:51;10.50;79.00
39655;DHT22;25336;59.944;11.010;2022-10-31T00:57:17;9.90;78.70
39655;DHT22;25336;59.944;11.010;2022-10-31T00:59:42;9.10;78.30
39655;DHT22;25336;59.944;11.010;2022-10-31T01:02:08;9.10;78.30
39655;DHT22;25336;59.944;11.010;2022-10-31T01:04:33;9.00;78.30
39655;DHT22;25336;59.944;11.010;2022-10-31T01:06:59;9.00;78.30
39655;DHT22;25336;59.944;11.010;2022-10-31T01:09:24;10.70;79.60
39655;DHT22;25336;59.944;11.010;2022-10-31T01:11:50;9.00;78.60
39655;DHT22;25336;59.944;11.010;2022-10-31T01:14:16;8.30;78.10
39655;DHT22;25336;59.944;11.010;2022-10-31T01:16:41;9.50;78.80
39655;DHT22;25336;59.944;11.010;2022-10-31T01:19:07;9.30;78.90
39655;DHT22;25336;59.944;11.010;2022-10-31T01:21:32;9.60;79.00
39655;DHT22;25336;59.944;11.010;2022-10-31T01:23:59;9.60;79.20
39655;DHT22;25336;59.944;11.010;2022-10-31T01:26:27;9.00;78.70
39655;DHT22;25336;59.944;11.010;2022-10-31T01:28:58;9.00;78.70
39655;DHT22;25336;59.944;11.010;2022-10-31T01:31:28;9.00;78.80
39655;DHT22;25336;59.944;11.010;2022-10-31T01:33:54;9.00;78.80
39655;DHT22;25336;59.944;11.010;2022-10-31T01:36:34;9.20;79.00
39655;DHT22;25336;59.944;11.010;2022-10-31T01:39:03;9.00;79.10
39655;DHT22;25336;59.944;11.010;2022-10-31T01:41:31;9.00;79.00
39655;DHT22;25336;59.944;11.010;2022-10-31T01:44:43;9.00;79.10
39655;DHT22;25336;59.944;11.010;2022-10-31T01:49:24;9.10;79.20
39655;DHT22;25336;59.944;11.010;2022-10-31T01:54:25;9.70;79.70
39655;DHT22;25336;59.944;11.010;2022-10-31T01:56:56;9.20;79.40
39655;DHT22;25336;59.944;11.010;2022-10-31T01:59:24;9.20;79.30
39655;DHT22;25336;59.944;11.010;2022-10-31T02:01:50;9.80;79.70
39655;DHT22;25336;59.944;11.010;2022-10-31T02:04:18;10.90;80.40
39655;DHT22;25336;59.944;11.010;2022-10-31T02:06:48;9.30;79.30
39655;DHT22;25336;59.944;11.010;2022-10-31T02:09:16;9.30;79.30
39655;DHT22;25336;59.944;11.010;2022-10-31T02:11:43;9.40;79.30
39655;DHT22;25336;59.944;11.010;2022-10-31T02:14:09;9.40;79.10
39655;DHT22;25336;59.944;11.010;2022-10-31T02:16:35;9.50;79.20
39655;DHT22;25336;59.944;11.010;2022-10-31T02:19:02;9.50;79.10
39655;DHT22;25336;59.944;11.010;2022-10-31T02:24:40;9.60;79.00
39655;DHT22;25336;59.944;11.010;2022-10-31T02:27:46;9.60;79.00
39655;DHT22;25336;59.944;11.010;2022-10-31T02:33:36;9.60;78.70
39655;DHT22;25336;59.944;11.010;2022-10-31T02:36:28;9.70;78.70
39655;DHT22;25336;59.944;11.010;2022-10-31T02:39:12;9.70;78.70
39655;DHT22;25336;59.944;11.010;2022-10-31T02:44:30;9.80;78.60
39655;DHT22;25336;59.944;11.010;2022-10-31T02:47:06;9.70;78.60
39655;DHT22;25336;59.944;11.010;2022-10-31T02:49:55;9.80;78.50
39655;DHT22;25336;59.944;11.010;2022-10-31T02:52:30;9.80;78.60
39655;DHT22;25336;59.944;11.010;2022-10-31T02:54:56;9.80;78.50
39655;DHT22;25336;59.944;11.010;2022-10-31T02:57:27;10.60;79.00
39655;DHT22;25336;59.944;11.010;2022-10-31T03:00:00;9.80;78.50
39655;DHT22;25336;59.944;11.010;2022-10-31T03:02:29;9.80;78.50
39655;DHT22;25336;59.944;11.010;2022-10-31T03:05:11;10.60;79.00
39655;DHT22;25336;59.944;11.010;2022-10-31T03:07:57;9.90;78.60
39655;DHT22;25336;59.944;11.010;2022-10-31T03:19:05;10.00;78.70
39655;DHT22;25336;59.944;11.010;2022-10-31T03:21:39;10.00;78.60
39655;DHT22;25336;59.944;11.010;2022-10-31T03:24:06;10.00;78.30
39655;DHT22;25336;59.944;11.010;2022-10-31T03:26:36;10.00;78.30
39655;DHT22;25336;59.944;11.010;2022-10-31T03:29:06;10.00;78.20
39655;DHT22;25336;59.944;11.010;2022-10-31T03:31:37;11.30;79.10
39655;DHT22;25336;59.944;11.010;2022-10-31T03:34:06;10.00;78.30
39655;DHT22;25336;59.944;11.010;2022-10-31T03:36:35;10.00;78.50
39655;DHT22;25336;59.944;11.010;2022-10-31T03:39:05;10.10;78.80
39655;DHT22;25336;59.944;11.010;2022-10-31T03:41:41;10.10;78.80
39655;DHT22;25336;59.944;11.010;2022-10-31T03:44:12;10.20;79.00
39655;DHT22;25336;59.944;11.010;2022-10-31T03:46:40;11.30;79.70
39655;DHT22;25336;59.944;11.010;2022-10-31T03:49:05;10.20;78.90
39655;DHT22;25336;59.944;11.010;2022-10-31T03:51:54;11.90;80.00
39655;DHT22;25336;59.944;11.010;2022-10-31T03:54:28;10.20;79.00
39655;DHT22;25336;59.944;11.010;2022-10-31T03:57:00;10.40;78.90
39655;DHT22;25336;59.944;11.010;2022-10-31T03:59:32;10.50;78.90
39655;DHT22;25336;59.944;11.010;2022-10-31T04:02:02;11.10;79.20
39655;DHT22;25336;59.944;11.010;2022-10-31T04:04:29;11.60;79.50
39655;DHT22;25336;59.944;11.010;2022-10-31T04:06:56;10.30;78.80
39655;DHT22;25336;59.944;11.010;2022-10-31T04:09:25;10.40;78.90
39655;DHT22;25336;59.944;11.010;2022-10-31T04:11:53;10.40;79.20
39655;DHT22;25336;59.944;11.010;2022-10-31T04:14:21;10.40;80.20
39655;DHT22;25336;59.944;11.010;2022-10-31T04:16:47;10.40;79.60
39655;DHT22;25336;59.944;11.010;2022-10-31T04:19:14;10.50;79.80
39655;DHT22;25336;59.944;11.010;2022-10-31T04:21:41;11.50;80.60
39655;DHT22;25336;59.944;11.010;2022-10-31T04:24:10;10.60;80.10
39655;DHT22;25336;59.944;11.010;2022-10-31T04:26:36;10.60;80.20
39655;DHT22;25336;59.944;11.010;2022-10-31T04:29:02;10.70;80.30
39655;DHT22;25336;59.944;11.010;2022-10-31T04:31:28;10.70;80.40
39655;DHT22;25336;59.944;11.010;2022-10-31T04:33:53;12.10;81.30
39655;DHT22;25336;59.944;11.010;2022-10-31T04:36:19;10.80;80.70
39655;DHT22;25336;59.944;11.010;2022-10-31T04:38:45;10.80;80.70
39655;DHT22;25336;59.944;11.010;2022-10-31T04:41:10;10.90;80.70
39655;DHT22;25336;59.944;11.010;2022-10-31T04:43:36;11.30;80.90
39655;DHT22;25336;59.944;11.010;2022-10-31T04:46:02;11.00;80.70
39655;DHT22;25336;59.944;11.010;2022-10-31T04:48:27;11.00;80.70
39655;DHT22;25336;59.944;11.010;2022-10-31T04:50:58;12.00;81.40
39655;DHT22;25336;59.944;11.010;2022-10-31T04:53:24;11.10;80.90
39655;DHT22;25336;59.944;11.010;2022-10-31T04:55:50;11.10;80.70
39655;DHT22;25336;59.944;11.010;2022-10-31T04:58:15;11.50;80.90
39655;DHT22;25336;59.944;11.010;2022-10-31T05:00:41;12.80;81.70
39655;DHT22;25336;59.944;11.010;2022-10-31T05:03:07;12.10;81.30
39655;DHT22;25336;59.944;11.010;2022-10-31T05:05:32;11.30;80.70
39655;DHT22;25336;59.944;11.010;2022-10-31T05:07:58;11.30;80.70
39655;DHT22;25336;59.944;11.010;2022-10-31T05:10:27;11.40;80.70
39655;DHT22;25336;59.944;11.010;2022-10-31T05:12:55;11.90;81.00
39655;DHT22;25336;59.944;11.010;2022-10-31T05:15:25;11.40;80.70
39655;DHT22;25336;59.944;11.010;2022-10-31T05:17:53;11.40;80.60
39655;DHT22;25336;59.944;11.010;2022-10-31T05:20:21;11.50;80.70
39655;DHT22;25336;59.944;11.010;2022-10-31T05:22:49;11.50;80.60
39655;DHT22;25336;59.944;11.010;2022-10-31T05:25:16;11.50;80.60
39655;DHT22;25336;59.944;11.010;2022-10-31T05:27:43;11.60;80.60
39655;DHT22;25336;59.944;11.010;2022-10-31T05:30:10;11.60;80.60
39655;DHT22;25336;59.944;11.010;2022-10-31T05:32:40;11.60;80.60
39655;DHT22;25336;59.944;11.010;2022-10-31T05:35:07;11.60;80.60
39655;DHT22;25336;59.944;11.010;2022-10-31T05:37:36;11.60;80.60
39655;DHT22;25336;59.944;11.010;2022-10-31T05:40:05;11.70;80.60
39655;DHT22;25336;59.944;11.010;2022-10-31T05:42:32;11.70;80.60
39655;DHT22;25336;59.944;11.010;2022-10-31T05:44:57;11.70;80.60
39655;DHT22;25336;59.944;11.010;2022-10-31T05:47:23;11.70;80.70
39655;DHT22;25336;59.944;11.010;2022-10-31T05:49:49;11.70;80.80
39655;DHT22;25336;59.944;11.010;2022-10-31T05:52:15;11.80;80.90
39655;DHT22;25336;59.944;11.010;2022-10-31T05:54:40;11.80;80.90
39655;DHT22;25336;59.944;11.010;2022-10-31T05:57:06;11.80;81.10
39655;DHT22;25336;59.944;11.010;2022-10-31T05:59:31;11.80;81.20
39655;DHT22;25336;59.944;11.010;2022-10-31T06:01:57;11.90;81.30
39655;DHT22;25336;59.944;11.010;2022-10-31T06:04:23;12.50;81.70
39655;DHT22;25336;59.944;11.010;2022-10-31T06:06:48;11.90;81.50
39655;DHT22;25336;59.944;11.010;2022-10-31T06:09:16;11.90;81.50
39655;DHT22;25336;59.944;11.010;2022-10-31T06:11:42;12.00;81.70
39655;DHT22;25336;59.944;11.010;2022-10-31T06:14:08;12.00;81.60
39655;DHT22;25336;59.944;11.010;2022-10-31T06:16:33;12.70;82.10
39655;DHT22;25336;59.944;11.010;2022-10-31T06:18:59;11.80;81.60
39655;DHT22;25336;59.944;11.010;2022-10-31T06:21:25;12.10;81.80
39655;DHT22;25336;59.944;11.010;2022-10-31T06:23:51;12.20;81.80
39655;DHT22;25336;59.944;11.010;2022-10-31T06:26:16;13.40;82.50
39655;DHT22;25336;59.944;11.010;2022-10-31T06:28:42;12.40;81.80
39655;DHT22;25336;59.944;11.010;2022-10-31T06:31:07;12.20;81.70
39655;DHT22;25336;59.944;11.010;2022-10-31T06:33:33;12.30;81.60
39655;DHT22;25336;59.944;11.010;2022-10-31T06:35:59;12.30;81.60
39655;DHT22;25336;59.944;11.010;2022-10-31T06:38:26;12.30;81.60
39655;DHT22;25336;59.944;11.010;2022-10-31T06:40:52;12.30;81.60
39655;DHT22;25336;59.944;11.010;2022-10-31T06:43:18;13.20;82.20
39655;DHT22;25336;59.944;11.010;2022-10-31T06:45:44;12.40;81.50
39655;DHT22;25336;59.944;11.010;2022-10-31T06:48:09;12.40;81.40
39655;DHT22;25336;59.944;11.010;2022-10-31T06:50:35;12.40;81.30
39655;DHT22;25336;59.944;11.010;2022-10-31T06:53:01;12.40;81.30
39655;DHT22;25336;59.944;11.010;2022-10-31T06:55:26;12.40;81.30
39655;DHT22;25336;59.944;11.010;2022-10-31T06:57:57;12.40;81.20
39655;DHT22;25336;59.944;11.010;2022-10-31T07:00:24;12.50;81.30
39655;DHT22;25336;59.944;11.010;2022-10-31T07:05:24;12.50;81.20
39655;DHT22;25336;59.944;11.010;2022-10-31T07:08:12;13.70;81.90
39655;DHT22;25336;59.944;11.010;2022-10-31T07:10:39;12.50;81.20
39655;DHT22;25336;59.944;11.010;2022-10-31T07:13:09;12.50;81.00
39655;DHT22;25336;59.944;11.010;2022-10-31T07:15:37;12.50;80.80
39655;DHT22;25336;59.944;11.010;2022-10-31T07:18:06;12.50;80.90
39655;DHT22;25336;59.944;11.010;2022-10-31T07:20:32;12.50;80.90
39655;DHT22;25336;59.944;11.010;2022-10-31T07:22:58;12.50;80.80
39655;DHT22;25336;59.944;11.010;2022-10-31T07:25:24;12.50;80.80
39655;DHT22;25336;59.944;11.010;2022-10-31T07:27:50;12.60;80.80
39655;DHT22;25336;59.944;11.010;2022-10-31T07:30:16;12.50;80.80
39655;DHT22;25336;59.944;11.010;2022-10-31T07:32:46;12.60;80.90
39655;DHT22;25336;59.944;11.010;2022-10-31T07:35:14;13.40;81.40
39655;DHT22;25336;59.944;11.010;2022-10-31T07:37:40;12.50;80.90
39655;DHT22;25336;59.944;11.010;2022-10-31T07:40:08;12.60;80.90
39655;DHT22;25336;59.944;11.010;2022-10-31T07:42:44;12.60;80.90
39655;DHT22;25336;59.944;11.010;2022-10-31T07:45:11;12.60;81.10
39655;DHT22;25336;59.944;11.010;2022-10-31T07:47:41;12.60;81.10
39655;DHT22;25336;59.944;11.010;2022-10-31T07:50:09;13.80;82.20
39655;DHT22;25336;59.944;11.010;2022-10-31T07:52:35;12.60;81.20
39655;DHT22;25336;59.944;11.010;2022-10-31T07:55:00;12.70;81.20
39655;DHT22;25336;59.944;11.010;2022-10-31T07:57:26;13.30;81.60
39655;DHT22;25336;59.944;11.010;2022-10-31T07:59:52;12.70;81.20
39655;DHT22;25336;59.944;11.010;2022-10-31T08:02:18;12.70;81.10
39655;DHT22;25336;59.944;11.010;2022-10-31T08:04:43;13.10;81.30
39655;DHT22;25336;59.944;11.010;2022-10-31T08:07:09;13.30;81.40
39655;DHT22;25336;59.944;11.010;2022-10-31T08:09:34;14.00;81.80
39655;DHT22;25336;59.944;11.010;2022-10-31T08:12:00;13.30;81.30
39655;DHT22;25336;59.944;11.010;2022-10-31T08:14:27;12.80;81.00
39655;DHT22;25336;59.944;11.010;2022-10-31T08:16:53;14.10;81.90
39655;DHT22;25336;59.944;11.010;2022-10-31T08:19:19;12.80;81.10
39655;DHT22;25336;59.944;11.010;2022-10-31T08:21:45;12.80;81.90
39655;DHT22;25336;59.944;11.010;2022-10-31T08:24:10;12.90;81.20
39655;DHT22;25336;59.944;11.010;2022-10-31T08:26:36;12.90;81.20
39655;DHT22;25336;59.944;11.010;2022-10-31T08:29:02;12.90;81.20
39655;DHT22;25336;59.944;11.010;2022-10-31T08:31:28;13.00;81.20
39655;DHT22;25336;59.944;11.010;2022-10-31T08:33:54;13.00;81.30
39655;DHT22;25336;59.944;11.010;2022-10-31T08:36:20;13.10;81.40
39655;DHT22;25336;59.944;11.010;2022-10-31T08:38:47;13.10;81.40
39655;DHT22;25336;59.944;11.010;2022-10-31T08:41:13;13.20;81.40
39655;DHT22;25336;59.944;11.010;2022-10-31T08:43:39;14.70;83.00
39655;DHT22;25336;59.944;11.010;2022-10-31T08:46:04;13.30;81.30
39655;DHT22;25336;59.944;11.010;2022-10-31T08:48:30;13.30;81.00
39655;DHT22;25336;59.944;11.010;2022-10-31T08:50:58;13.20;80.60
39655;DHT22;25336;59.944;11.010;2022-10-31T08:53:25;13.40;80.60
39655;DHT22;25336;59.944;11.010;2022-10-31T08:55:51;13.50;80.50
39655;DHT22;25336;59.944;11.010;2022-10-31T08:58:18;13.50;80.30
39655;DHT22;25336;59.944;11.010;2022-10-31T09:00:45;13.50;80.10
39655;DHT22;25336;59.944;11.010;2022-10-31T09:03:14;14.20;80.50
39655;DHT22;25336;59.944;11.010;2022-10-31T09:05:40;13.60;80.20
39655;DHT22;25336;59.944;11.010;2022-10-31T09:08:07;13.60;80.10
39655;DHT22;25336;59.944;11.010;2022-10-31T09:10:34;13.70;80.00
39655;DHT22;25336;59.944;11.010;2022-10-31T09:15:28;13.70;79.90
39655;DHT22;25336;59.944;11.010;2022-10-31T09:17:54;13.80;79.70
39655;DHT22;25336;59.944;11.010;2022-10-31T09:20:20;13.80;79.60
39655;DHT22;25336;59.944;11.010;2022-10-31T09:22:46;13.80;79.40
39655;DHT22;25336;59.944;11.010;2022-10-31T09:25:12;13.80;79.30
39655;DHT22;25336;59.944;11.010;2022-10-31T09:27:37;13.90;79.20
39655;DHT22;25336;59.944;11.010;2022-10-31T09:30:04;13.90;79.20
39655;DHT22;25336;59.944;11.010;2022-10-31T09:32:30;13.90;78.90
39655;DHT22;25336;59.944;11.010;2022-10-31T09:34:55;14.00;78.80
39655;DHT22;25336;59.944;11.010;2022-10-31T09:37:21;13.90;78.70
39655;DHT22;25336;59.944;11.010;2022-10-31T09:39:47;13.90;78.60
39655;DHT22;25336;59.944;11.010;2022-10-31T09:45:14;13.90;78.30
39655;DHT22;25336;59.944;11.010;2022-10-31T09:50:22;14.00;78.30
39655;DHT22;25336;59.944;11.010;2022-10-31T09:53:00;14.00;78.40
39655;DHT22;25336;59.944;11.010;2022-10-31T09:55:40;14.00;78.20
39655;DHT22;25336;59.944;11.010;2022-10-31T09:58:28;14.00;78.10
39655;DHT22;25336;59.944;11.010;2022-10-31T10:00:58;15.50;79.30
39655;DHT22;25336;59.944;11.010;2022-10-31T10:03:42;14.00;78.60
39655;DHT22;25336;59.944;11.010;2022-10-31T10:06:14;14.10;78.40
39655;DHT22;25336;59.944;11.010;2022-10-31T10:08:42;14.10;78.40
39655;DHT22;25336;59.944;11.010;2022-10-31T10:27:49;14.30;77.70
39655;DHT22;25336;59.944;11.010;2022-10-31T10:32:47;14.30;78.50
39655;DHT22;25336;59.944;11.010;2022-10-31T10:37:49;14.30;77.50
39655;DHT22;25336;59.944;11.010;2022-10-31T10:40:24;14.30;77.20
39655;DHT22;25336;59.944;11.010;2022-10-31T10:49:15;14.40;76.60
39655;DHT22;25336;59.944;11.010;2022-10-31T10:54:45;14.40;76.70
39655;DHT22;25336;59.944;11.010;2022-10-31T10:59:51;14.50;76.40
39655;DHT22;25336;59.944;11.010;2022-10-31T11:02:24;14.50;76.40
39655;DHT22;25336;59.944;11.010;2022-10-31T11:04:55;14.50;76.40
39655;DHT22;25336;59.944;11.010;2022-10-31T11:07:21;15.30;76.80
39655;DHT22;25336;59.944;11.010;2022-10-31T11:09:47;14.50;76.40
39655;DHT22;25336;59.944;11.010;2022-10-31T11:12:28;14.50;76.40
39655;DHT22;25336;59.944;11.010;2022-10-31T11:14:55;14.60;76.40
39655;DHT22;25336;59.944;11.010;2022-10-31T11:20:03;14.70;76.40
39655;DHT22;25336;59.944;11.010;2022-10-31T11:22:30;14.70;76.40
39655;DHT22;25336;59.944;11.010;2022-10-31T11:24:55;15.30;76.90
39655;DHT22;25336;59.944;11.010;2022-10-31T11:27:23;14.80;76.70
39655;DHT22;25336;59.944;11.010;2022-10-31T11:29:50;14.80;76.20
39655;DHT22;25336;59.944;11.010;2022-10-31T11:32:22;14.80;76.00
39655;DHT22;25336;59.944;11.010;2022-10-31T11:35:01;14.80;75.80
39655;DHT22;25336;59.944;11.010;2022-10-31T11:37:31;14.90;75.50
39655;DHT22;25336;59.944;11.010;2022-10-31T11:39:59;14.90;75.50
39655;DHT22;25336;59.944;11.010;2022-10-31T11:42:28;14.90;75.40
39655;DHT22;25336;59.944;11.010;2022-10-31T11:44:55;14.90;75.30
39655;DHT22;25336;59.944;11.010;2022-10-31T11:47:31;14.90;75.30
39655;DHT22;25336;59.944;11.010;2022-10-31T11:50:02;14.90;75.10
39655;DHT22;25336;59.944;11.010;2022-10-31T11:52:30;14.90;75.30
39655;DHT22;25336;59.944;11.010;2022-10-31T11:57:45;15.00;75.70
39655;DHT22;25336;59.944;11.010;2022-10-31T12:00:24;15.00;75.40
39655;DHT22;25336;59.944;11.010;2022-10-31T12:02:51;15.10;75.20
39655;DHT22;25336;59.944;11.010;2022-10-31T12:05:19;15.10;75.40
39655;DHT22;25336;59.944;11.010;2022-10-31T12:07:47;15.10;75.20
39655;DHT22;25336;59.944;11.010;2022-10-31T12:10:14;15.10;75.40
39655;DHT22;25336;59.944;11.010;2022-10-31T12:15:37;15.20;75.00
39655;DHT22;25336;59.944;11.010;2022-10-31T12:18:31;15.20;74.90
39655;DHT22;25336;59.944;11.010;2022-10-31T12:21:35;15.30;74.50
39655;DHT22;25336;59.944;11.010;2022-10-31T12:24:10;15.30;74.10
39655;DHT22;25336;59.944;11.010;2022-10-31T12:29:37;15.80;74.50
39655;DHT22;25336;59.944;11.010;2022-10-31T12:40:33;15.40;74.30
39655;DHT22;25336;59.944;11.010;2022-10-31T12:43:24;15.40;73.70
39655;DHT22;25336;59.944;11.010;2022-10-31T12:45:53;15.50;74.00
39655;DHT22;25336;59.944;11.010;2022-10-31T12:48:47;15.50;74.20
39655;DHT22;25336;59.944;11.010;2022-10-31T12:51:18;15.50;73.40
39655;DHT22;25336;59.944;11.010;2022-10-31T13:01:47;15.60;73.00
39655;DHT22;25336;59.944;11.010;2022-10-31T13:07:44;15.60;73.00
39655;DHT22;25336;59.944;11.010;2022-10-31T13:10:21;15.60;72.90
39655;DHT22;25336;59.944;11.010;2022-10-31T13:12:50;15.60;73.10
39655;DHT22;25336;59.944;11.010;2022-10-31T13:15:26;15.60;73.20
39655;DHT22;25336;59.944;11.010;2022-10-31T13:17:58;15.70;72.90
39655;DHT22;25336;59.944;11.010;2022-10-31T13:20:28;15.70;72.80
39655;DHT22;25336;59.944;11.010;2022-10-31T13:23:10;14.30;72.10
39655;DHT22;25336;59.944;11.010;2022-10-31T13:25:40;15.60;72.50
39655;DHT22;25336;59.944;11.010;2022-10-31T13:28:40;15.60;72.70
39655;DHT22;25336;59.944;11.010;2022-10-31T13:31:01;15.60;72.40
39655;DHT22;25336;59.944;11.010;2022-10-31T13:33:29;15.60;72.60
39655;DHT22;25336;59.944;11.010;2022-10-31T13:44:43;15.50;71.90
39655;DHT22;25336;59.944;11.010;2022-10-31T13:47:27;15.50;72.20
39655;DHT22;25336;59.944;11.010;2022-10-31T13:52:44;15.40;71.90
39655;DHT22;25336;59.944;11.010;2022-10-31T13:55:43;15.30;72.10
39655;DHT22;25336;59.944;11.010;2022-10-31T13:58:26;15.30;71.90
39655;DHT22;25336;59.944;11.010;2022-10-31T14:01:15;15.20;72.10
39655;DHT22;25336;59.944;11.010;2022-10-31T14:03:44;15.20;72.10
39655;DHT22;25336;59.944;11.010;2022-10-31T14:06:11;15.10;72.30
39655;DHT22;25336;59.944;11.010;2022-10-31T14:08:48;15.10;72.50
39655;DHT22;25336;59.944;11.010;2022-10-31T14:11:25;15.10;72.40
39655;DHT22;25336;59.944;11.010;2022-10-31T14:13:53;15.00;72.50
39655;DHT22;25336;59.944;11.010;2022-10-31T14:16:24;15.40;72.90
39655;DHT22;25336;59.944;11.010;2022-10-31T14:19:00;15.50;73.00
39655;DHT22;25336;59.944;11.010;2022-10-31T14:21:29;14.90;72.70
39655;DHT22;25336;59.944;11.010;2022-10-31T14:23:56;14.90;72.90
39655;DHT22;25336;59.944;11.010;2022-10-31T14:28:53;14.80;73.10
39655;DHT22;25336;59.944;11.010;2022-10-31T14:33:54;14.70;73.20
39655;DHT22;25336;59.944;11.010;2022-10-31T14:39:06;14.60;73.20
39655;DHT22;25336;59.944;11.010;2022-10-31T14:41:47;14.60;73.30
39655;DHT22;25336;59.944;11.010;2022-10-31T14:44:36;14.60;73.30
39655;DHT22;25336;59.944;11.010;2022-10-31T14:52:07;14.50;73.60
39655;DHT22;25336;59.944;11.010;2022-10-31T14:54:48;14.40;73.30
39655;DHT22;25336;59.944;11.010;2022-10-31T14:57:20;14.40;73.50
39655;DHT22;25336;59.944;11.010;2022-10-31T14:59:51;14.30;73.50
39655;DHT22;25336;59.944;11.010;2022-10-31T15:02:42;15.00;73.90
39655;DHT22;25336;59.944;11.010;2022-10-31T15:05:11;14.20;73.50
39655;DHT22;25336;59.944;11.010;2022-10-31T15:07:58;14.20;73.50
39655;DHT22;25336;59.944;11.010;2022-10-31T15:10:29;14.20;73.70
39655;DHT22;25336;59.944;11.010;2022-10-31T15:13:18;14.10;73.60
39655;DHT22;25336;59.944;11.010;2022-10-31T15:15:44;14.10;73.70
39655;DHT22;25336;59.944;11.010;2022-10-31T15:18:26;15.40;74.60
39655;DHT22;25336;59.944;11.010;2022-10-31T15:20:54;14.00;73.70
39655;DHT22;25336;59.944;11.010;2022-10-31T15:23:28;13.90;73.60
39655;DHT22;25336;59.944;11.010;2022-10-31T15:26:05;13.90;73.70
39655;DHT22;25336;59.944;11.010;2022-10-31T15:28:31;13.80;73.70
39655;DHT22;25336;59.944;11.010;2022-10-31T15:30:59;13.80;73.80
39655;DHT22;25336;59.944;11.010;2022-10-31T15:33:27;13.70;73.90
39655;DHT22;25336;59.944;11.010;2022-10-31T15:36:01;13.60;73.90
39655;DHT22;25336;59.944;11.010;2022-10-31T15:38:28;13.60;74.30
39655;DHT22;25336;59.944;11.010;2022-10-31T15:41:01;13.60;74.40
39655;DHT22;25336;59.944;11.010;2022-10-31T15:43:34;13.50;74.70
39655;DHT22;25336;59.944;11.010;2022-10-31T15:46:01;13.50;74.80
39655;DHT22;25336;59.944;11.010;2022-10-31T15:48:27;14.60;75.60
39655;DHT22;25336;59.944;11.010;2022-10-31T15:50:57;13.40;75.00
39655;DHT22;25336;59.944;11.010;2022-10-31T15:53:51;13.40;75.00
39655;DHT22;25336;59.944;11.010;2022-10-31T15:56:24;13.30;75.20
39655;DHT22;25336;59.944;11.010;2022-10-31T15:58:52;13.30;75.20
39655;DHT22;25336;59.944;11.010;2022-10-31T16:01:27;13.20;75.20
39655;DHT22;25336;59.944;11.010;2022-10-31T16:06:38;13.10;75.50
39655;DHT22;25336;59.944;11.010;2022-10-31T16:09:21;13.10;75.40
39655;DHT22;25336;59.944;11.010;2022-10-31T16:11:47;13.00;75.90
39655;DHT22;25336;59.944;11.010;2022-10-31T16:16:45;12.90;75.90
39655;DHT22;25336;59.944;11.010;2022-10-31T16:19:28;12.90;76.40
39655;DHT22;25336;59.944;11.010;2022-10-31T16:22:09;12.90;76.50
39655;DHT22;25336;59.944;11.010;2022-10-31T16:24:45;12.90;76.60
39655;DHT22;25336;59.944;11.010;2022-10-31T16:27:25;12.90;76.60
39655;DHT22;25336;59.944;11.010;2022-10-31T16:29:55;12.80;76.80
39655;DHT22;25336;59.944;11.010;2022-10-31T16:32:36;12.80;76.60
39655;DHT22;25336;59.944;11.010;2022-10-31T16:37:40;12.80;77.00
39655;DHT22;25336;59.944;11.010;2022-10-31T16:40:07;13.70;77.70
39655;DHT22;25336;59.944;11.010;2022-10-31T16:42:33;12.70;77.10
39655;DHT22;25336;59.944;11.010;2022-10-31T16:44:59;12.70;77.10
39655;DHT22;25336;59.944;11.010;2022-10-31T16:47:25;12.70;77.10
39655;DHT22;25336;59.944;11.010;2022-10-31T16:49:50;12.70;77.20
39655;DHT22;25336;59.944;11.010;2022-10-31T16:52:17;13.80;78.10
39655;DHT22;25336;59.944;11.010;2022-10-31T16:54:43;12.60;77.50
39655;DHT22;25336;59.944;11.010;2022-10-31T16:57:20;12.70;77.60
39655;DHT22;25336;59.944;11.010;2022-10-31T16:59:51;12.60;77.90
39655;DHT22;25336;59.944;11.010;2022-10-31T17:02:17;12.60;77.60
39655;DHT22;25336;59.944;11.010;2022-10-31T17:04:43;12.60;77.80
39655;DHT22;25336;59.944;11.010;2022-10-31T17:07:09;12.60;77.90
39655;DHT22;25336;59.944;11.010;2022-10-31T17:09:35;12.50;78.00
39655;DHT22;25336;59.944;11.010;2022-10-31T17:12:01;12.50;78.20
39655;DHT22;25336;59.944;11.010;2022-10-31T17:14:27;12.50;78.10
39655;DHT22;25336;59.944;11.010;2022-10-31T17:16:52;12.50;78.30
39655;DHT22;25336;59.944;11.010;2022-10-31T17:19:18;12.60;78.30
39655;DHT22;25336;59.944;11.010;2022-10-31T17:21:44;12.50;78.40
39655;DHT22;25336;59.944;11.010;2022-10-31T17:24:13;12.50;78.30
39655;DHT22;25336;59.944;11.010;2022-10-31T17:26:39;12.50;78.40
39655;DHT22;25336;59.944;11.010;2022-10-31T17:29:05;12.50;78.30
39655;DHT22;25336;59.944;11.010;2022-10-31T17:31:32;12.50;78.30
39655;DHT22;25336;59.944;11.010;2022-10-31T17:33:59;12.40;78.40
39655;DHT22;25336;59.944;11.010;2022-10-31T17:36:25;12.40;78.30
39655;DHT22;25336;59.944;11.010;2022-10-31T17:38:51;12.40;78.30
39655;DHT22;25336;59.944;11.010;2022-10-31T17:41:16;12.40;78.30
39655;DHT22;25336;59.944;11.010;2022-10-31T17:43:42;12.40;78.30